createdAt,value
2022-10-28T00:01:45.257Z,40.15
2022-10-28T00:05:48.036Z,25.02
2022-10-28T00:09:50.636Z,34.38
2022-10-28T00:13:57.866Z,28.70
2022-10-28T00:18:00.057Z,30.73
2022-10-28T00:22:02.053Z,30.63
2022-10-28T00:26:16.096Z,29.33
2022-10-28T00:30:18.142Z,23.33
2022-10-28T00:34:23.860Z,28.10
2022-10-28T00:38:26.226Z,29.52
2022-10-28T00:42:28.503Z,28.45
2022-10-28T00:46:39.544Z,28.08
2022-10-28T00:50:54.051Z,32.47
2022-10-28T00:54:59.188Z,35.78
2022-10-28T00:59:07.629Z,29.95
2022-10-28T01:03:10.008Z,34.15
2022-10-28T01:07:12.463Z,31.52
2022-10-28T01:11:26.380Z,32.13
2022-10-28T01:15:48.798Z,32.83
2022-10-28T01:20:09.179Z,35.75
2022-10-28T01:24:40.263Z,33.63
2022-10-28T01:29:01.132Z,33.92
2022-10-28T01:33:07.488Z,31.05
2022-10-28T01:37:53.942Z,35.90
2022-10-28T01:42:14.898Z,32.95
2022-10-28T01:46:26.270Z,37.28
2022-10-28T01:50:50.908Z,34.80
2022-10-28T01:55:02.499Z,38.13
2022-10-28T01:59:07.864Z,31.15
2022-10-28T02:03:10.646Z,30.85
2022-10-28T02:07:13.433Z,33.60
2022-10-28T02:11:45.712Z,27.73
2022-10-28T02:16:23.433Z,31.48
2022-10-28T02:20:49.551Z,27.48
2022-10-28T02:25:12.511Z,38.55
2022-10-28T02:29:25.635Z,29.48
2022-10-28T02:33:33.237Z,34.50
2022-10-28T02:37:38.863Z,35.25
2022-10-28T02:41:57.662Z,45.00
2022-10-28T02:46:02.810Z,34.15
2022-10-28T02:50:09.362Z,37.50
2022-10-28T02:54:26.225Z,41.13
2022-10-28T02:58:28.978Z,39.53
2022-10-28T03:02:31.166Z,31.60
2022-10-28T03:06:33.231Z,34.13
2022-10-28T03:10:35.220Z,38.35
2022-10-28T03:14:37.762Z,48.00
2022-10-28T03:18:39.863Z,40.08
2022-10-28T03:22:45.316Z,34.35
2022-10-28T03:26:47.257Z,34.67
2022-10-28T03:30:50.544Z,45.25
2022-10-28T03:34:52.638Z,44.17
2022-10-28T03:38:54.699Z,36.00
2022-10-28T03:42:56.935Z,47.30
2022-10-28T03:46:58.938Z,41.03
2022-10-28T03:51:00.969Z,45.33
2022-10-28T03:55:03.746Z,50.03
2022-10-28T03:59:06.428Z,63.42
2022-10-28T04:03:08.363Z,50.33
2022-10-28T04:07:10.346Z,40.05
2022-10-28T04:11:12.319Z,45.25
2022-10-28T04:15:14.485Z,40.33
2022-10-28T04:19:16.502Z,44.67
2022-10-28T04:23:18.518Z,38.40
2022-10-28T04:27:21.633Z,40.30
2022-10-28T04:31:23.583Z,37.38
2022-10-28T04:35:25.797Z,43.78
2022-10-28T04:39:27.738Z,53.25
2022-10-28T04:43:29.684Z,43.78
2022-10-28T04:47:31.625Z,45.15
2022-10-28T04:51:33.668Z,38.78
2022-10-28T04:55:35.801Z,35.03
2022-10-28T04:59:37.847Z,48.80
2022-10-28T05:03:39.837Z,47.30
2022-10-28T05:07:42.033Z,48.83
2022-10-28T05:11:44.179Z,51.42
2022-10-28T05:15:49.129Z,49.15
2022-10-28T05:19:51.063Z,40.60
2022-10-28T05:23:52.998Z,58.35
2022-10-28T05:27:59.785Z,53.05
2022-10-28T05:32:01.763Z,58.83
2022-10-28T05:36:04.449Z,55.15
2022-10-28T05:40:08.225Z,65.65
2022-10-28T05:44:10.260Z,52.55
2022-10-28T05:48:12.232Z,51.83
2022-10-28T05:52:14.223Z,41.55
2022-10-28T05:56:16.187Z,49.75
2022-10-28T06:00:21.521Z,44.72
2022-10-28T06:04:24.862Z,34.33
2022-10-28T06:08:27.598Z,49.05
2022-10-28T06:12:28.016Z,41.28
2022-10-28T06:16:30.188Z,48.00
2022-10-28T06:20:32.344Z,36.83
2022-10-28T06:24:34.327Z,39.50
2022-10-28T06:28:37.161Z,47.67
2022-10-28T06:32:39.181Z,41.47
2022-10-28T06:36:41.375Z,45.10
2022-10-28T06:40:43.364Z,46.40
2022-10-28T06:44:45.316Z,43.95
2022-10-28T06:48:49.000Z,45.58
2022-10-28T06:52:51.260Z,52.80
2022-10-28T06:56:55.749Z,57.58
2022-10-28T07:01:03.937Z,56.50
2022-10-28T07:05:06.517Z,51.00
2022-10-28T07:09:13.479Z,53.28
2022-10-28T07:13:15.412Z,49.50
2022-10-28T07:17:17.381Z,101.40
2022-10-28T07:21:21.917Z,112.63
2022-10-28T07:29:25.670Z,86.70
2022-10-28T07:33:27.868Z,66.28
2022-10-28T07:37:29.793Z,72.40
2022-10-28T07:41:32.021Z,71.13
2022-10-28T07:45:35.811Z,61.75
2022-10-28T07:49:37.799Z,60.45
2022-10-28T07:53:40.622Z,52.58
2022-10-28T07:57:42.646Z,48.30
2022-10-28T08:01:45.307Z,49.20
2022-10-28T08:05:48.166Z,45.17
2022-10-28T08:09:52.668Z,41.60
2022-10-28T08:13:56.061Z,49.22
2022-10-28T08:17:57.988Z,44.55
2022-10-28T08:22:00.051Z,43.78
2022-10-28T08:26:02.023Z,39.03
2022-10-28T08:30:04.762Z,38.80
2022-10-28T08:34:07.677Z,38.00
2022-10-28T08:38:10.188Z,38.40
2022-10-28T08:42:44.603Z,31.75
2022-10-28T08:46:46.983Z,24.10
2022-10-28T08:50:59.359Z,28.33
2022-10-28T08:55:36.246Z,22.85
2022-10-28T08:59:41.255Z,21.33
2022-10-28T09:03:46.554Z,16.83
2022-10-28T09:07:49.127Z,21.40
2022-10-28T09:12:19.165Z,21.42
2022-10-28T09:16:45.879Z,17.20
2022-10-28T09:20:54.379Z,14.98
2022-10-28T09:25:03.462Z,13.68
2022-10-28T09:29:35.290Z,15.80
2022-10-28T09:33:47.976Z,17.75
2022-10-28T09:37:57.664Z,16.25
2022-10-28T09:42:01.299Z,13.18
2022-10-28T09:46:12.253Z,14.52
2022-10-28T09:50:18.492Z,15.10
2022-10-28T09:54:31.724Z,12.30
2022-10-28T09:58:34.682Z,16.30
2022-10-28T10:02:40.227Z,21.42
2022-10-28T10:06:43.195Z,15.98
2022-10-28T10:11:02.327Z,21.65
2022-10-28T10:15:07.668Z,15.15
2022-10-28T10:19:11.381Z,14.00
2022-10-28T10:23:30.133Z,13.45
2022-10-28T10:27:32.557Z,10.18
2022-10-28T10:31:34.594Z,15.88
2022-10-28T10:35:38.026Z,11.27
2022-10-28T10:39:40.415Z,13.15
2022-10-28T10:43:42.408Z,11.95
2022-10-28T10:47:44.407Z,10.15
2022-10-28T10:52:01.190Z,14.23
2022-10-28T10:56:08.633Z,11.63
2022-10-28T11:00:17.021Z,10.75
2022-10-28T11:04:23.389Z,12.95
2022-10-28T11:08:25.458Z,14.23
2022-10-28T11:12:35.651Z,14.23
2022-10-28T11:16:48.215Z,10.18
2022-10-28T11:20:57.610Z,7.78
2022-10-28T11:25:27.847Z,14.57
2022-10-28T11:29:29.803Z,13.00
2022-10-28T11:34:01.054Z,10.95
2022-10-28T11:38:06.064Z,13.82
2022-10-28T11:42:30.648Z,13.35
2022-10-28T11:47:12.179Z,13.00
2022-10-28T11:51:48.255Z,15.95
2022-10-28T11:56:13.437Z,12.48
2022-10-28T12:00:25.255Z,12.57
2022-10-28T12:04:42.465Z,14.05
2022-10-28T12:08:53.439Z,10.40
2022-10-28T12:13:20.561Z,10.73
2022-10-28T12:17:54.726Z,11.50
2022-10-28T12:26:40.767Z,10.82
2022-10-28T12:30:43.345Z,11.70
2022-10-28T12:34:48.939Z,13.02
2022-10-28T12:39:13.239Z,11.52
2022-10-28T12:43:36.986Z,11.00
2022-10-28T12:48:13.953Z,10.98
2022-10-28T12:52:40.786Z,10.00
2022-10-28T12:56:50.678Z,10.32
2022-10-28T13:01:04.443Z,12.30
2022-10-28T13:05:07.542Z,12.23
2022-10-28T13:09:39.841Z,17.40
2022-10-28T13:14:00.130Z,7.55
2022-10-28T13:18:21.104Z,14.60
2022-10-28T13:22:54.499Z,11.68
2022-10-28T13:26:57.488Z,11.18
2022-10-28T13:31:02.403Z,11.00
2022-10-28T13:35:25.368Z,16.27
2022-10-28T13:39:33.131Z,13.45
2022-10-28T13:43:50.414Z,8.20
2022-10-28T13:47:52.351Z,11.40
2022-10-28T13:52:20.484Z,8.40
2022-10-28T13:56:34.691Z,12.70
2022-10-28T14:00:37.835Z,11.52
2022-10-28T14:04:41.534Z,11.82
2022-10-28T14:12:54.824Z,11.77
2022-10-28T14:16:57.376Z,11.95
2022-10-28T14:21:01.659Z,16.38
2022-10-28T14:25:44.487Z,14.20
2022-10-28T14:30:11.092Z,16.33
2022-10-28T14:34:13.032Z,13.32
2022-10-28T14:38:39.457Z,15.63
2022-10-28T14:42:58.497Z,12.93
2022-10-28T14:47:29.948Z,18.88
2022-10-28T14:51:41.900Z,12.77
2022-10-28T14:55:47.469Z,18.65
2022-10-28T14:59:51.771Z,11.80
2022-10-28T15:03:58.053Z,14.55
2022-10-28T15:08:03.333Z,17.30
2022-10-28T15:12:11.761Z,16.63
2022-10-28T15:16:25.157Z,31.77
2022-10-28T15:20:28.986Z,17.60
2022-10-28T15:28:33.340Z,19.52
2022-10-28T15:32:35.798Z,11.88
2022-10-28T15:36:37.917Z,14.88
2022-10-28T15:40:40.047Z,8.85
2022-10-28T15:44:42.065Z,12.55
2022-10-28T15:48:44.249Z,14.63
2022-10-28T15:52:50.112Z,9.82
2022-10-28T15:56:57.656Z,12.95
2022-10-28T16:00:59.718Z,20.45
2022-10-28T16:05:01.950Z,10.85
2022-10-28T16:09:13.341Z,9.65
2022-10-28T16:13:20.687Z,9.05
2022-10-28T16:17:29.276Z,7.45
2022-10-28T16:21:32.257Z,7.50
2022-10-28T16:25:34.181Z,6.80
2022-10-28T16:29:36.226Z,7.38
2022-10-28T16:33:38.488Z,10.73
2022-10-28T16:37:44.592Z,8.20
2022-10-28T16:41:57.817Z,8.52
2022-10-28T16:46:00.822Z,13.98
2022-10-28T16:50:02.824Z,12.70
2022-10-28T16:54:04.944Z,13.00
2022-10-28T16:58:07.654Z,11.65
2022-10-28T17:02:18.509Z,11.10
2022-10-28T17:06:20.572Z,14.52
2022-10-28T17:10:23.120Z,22.42
2022-10-28T17:14:26.114Z,14.60
2022-10-28T17:18:28.038Z,14.70
2022-10-28T17:22:30.649Z,11.85
2022-10-28T17:26:32.798Z,11.32
2022-10-28T17:30:35.690Z,8.23
2022-10-28T17:34:38.230Z,14.00
2022-10-28T17:38:40.599Z,15.13
2022-10-28T17:42:42.571Z,13.90
2022-10-28T17:46:44.527Z,16.77
2022-10-28T17:50:54.141Z,15.63
2022-10-28T17:54:56.702Z,16.88
2022-10-28T17:59:01.602Z,18.05
2022-10-28T18:03:04.913Z,16.88
2022-10-28T18:07:06.905Z,12.45
2022-10-28T18:11:10.747Z,20.65
2022-10-28T18:15:12.687Z,19.08
2022-10-28T18:19:14.753Z,25.48
2022-10-28T18:23:16.757Z,25.30
2022-10-28T18:27:18.744Z,24.90
2022-10-28T18:31:21.254Z,26.15
2022-10-28T18:35:23.210Z,18.13
2022-10-28T18:39:25.212Z,22.85
2022-10-28T18:43:28.325Z,13.48
2022-10-28T18:47:31.041Z,17.48
2022-10-28T18:51:33.704Z,16.10
2022-10-28T18:55:35.722Z,20.05
2022-10-28T18:59:52.357Z,14.38
2022-10-28T19:04:02.385Z,14.40
2022-10-28T19:08:04.466Z,11.00
2022-10-28T19:12:07.860Z,10.27
2022-10-28T19:16:10.592Z,14.88
2022-10-28T19:20:12.880Z,13.60
2022-10-28T19:24:14.805Z,11.93
2022-10-28T19:28:16.830Z,15.40
2022-10-28T19:32:19.155Z,15.35
2022-10-28T19:36:24.210Z,31.30
2022-10-28T19:40:26.242Z,18.52
2022-10-28T19:44:28.521Z,20.80
2022-10-28T19:48:30.752Z,19.67
2022-10-28T19:52:32.714Z,35.35
2022-10-28T19:56:35.777Z,21.38
2022-10-28T20:00:37.873Z,19.02
2022-10-28T20:04:40.182Z,15.52
2022-10-28T20:08:44.468Z,13.20
2022-10-28T20:12:46.425Z,16.30
2022-10-28T20:16:49.276Z,15.52
2022-10-28T20:20:51.510Z,16.67
2022-10-28T20:24:53.551Z,15.93
2022-10-28T20:28:56.534Z,17.02
2022-10-28T20:32:58.600Z,19.63
2022-10-28T20:37:00.582Z,17.40
2022-10-28T20:41:02.535Z,16.50
2022-10-28T20:45:04.901Z,13.35
2022-10-28T20:49:10.705Z,14.90
2022-10-28T20:53:12.660Z,14.63
2022-10-28T20:57:14.689Z,17.58
2022-10-28T21:01:22.681Z,15.35
2022-10-28T21:05:24.844Z,11.02
2022-10-28T21:09:26.753Z,15.18
2022-10-28T21:13:29.142Z,15.85
2022-10-28T21:17:31.120Z,18.30
2022-10-28T21:21:33.010Z,20.77
2022-10-28T21:25:35.068Z,20.38
2022-10-28T21:29:37.013Z,20.38
2022-10-28T21:33:40.466Z,16.00
2022-10-28T21:37:42.626Z,15.93
2022-10-28T21:41:44.729Z,20.00
2022-10-28T21:45:46.859Z,16.77
2022-10-28T21:49:48.978Z,14.70
2022-10-28T21:53:50.941Z,16.10
2022-10-28T21:57:53.076Z,14.02
2022-10-28T22:01:55.843Z,15.68
2022-10-28T22:05:58.231Z,15.40
2022-10-28T22:10:00.448Z,16.67
2022-10-28T22:14:04.372Z,12.98
2022-10-28T22:18:06.440Z,15.40
2022-10-28T22:22:08.643Z,12.23
2022-10-28T22:26:13.828Z,17.67
2022-10-28T22:30:15.849Z,16.58
2022-10-28T22:34:17.868Z,14.82
2022-10-28T22:38:19.877Z,15.60
2022-10-28T22:42:21.850Z,16.10
2022-10-28T22:46:26.246Z,15.20
2022-10-28T22:50:28.583Z,13.48
2022-10-28T22:54:30.512Z,16.67
2022-10-28T22:58:32.806Z,20.55
2022-10-28T23:02:34.914Z,11.35
2022-10-28T23:06:37.189Z,12.43
2022-10-28T23:10:39.084Z,15.48
2022-10-28T23:14:41.026Z,15.00
2022-10-28T23:18:43.877Z,16.52
2022-10-28T23:22:45.937Z,13.55
2022-10-28T23:26:48.233Z,12.43
2022-10-28T23:30:50.333Z,11.52
2022-10-28T23:34:52.480Z,10.65
2022-10-28T23:38:56.703Z,12.50
2022-10-28T23:42:59.028Z,10.27
2022-10-28T23:47:01.051Z,8.88
2022-10-28T23:51:03.597Z,10.68
2022-10-28T23:55:06.154Z,10.27
2022-10-28T23:59:08.373Z,11.25
